Time;durP1;ratioP1;P1;durP2;ratioP2;P2;SDS_P1;SDS_P2;PMS_P1;PMS_P2;Temp;Humidity;BMP_temperature;BMP_pressure;BME280_temperature;BME280_humidity;BME280_pressure;Samples;Min_cycle;Max_cycle;Signal;HPM_P1;HPM_P2
2022/12/05 00:02:26;;;;;;;;;7.40;5.80;;;;;9.10;56.34;99986.56;5057216;28;8837;-76
2022/12/05 00:04:56;;;;;;;;;8.00;6.80;;;;;8.85;56.96;99974.97;5069559;28;8879;-76
2022/12/05 00:07:25;;;;;;;;;7.00;6.00;;;;;8.75;56.91;99969.66;5081028;28;8859;-77
2022/12/05 00:09:53;;;;;;;;;5.60;5.60;;;;;8.75;57.50;99974.84;5072749;28;8859;-77
2022/12/05 00:12:22;;;;;;;;;7.40;7.00;;;;;8.69;57.64;99987.75;5090780;28;8856;-76
2022/12/05 00:14:51;;;;;;;;;6.40;5.20;;;;;8.66;57.63;99979.94;5086775;28;8878;-76
2022/12/05 00:17:19;;;;;;;;;6.00;6.00;;;;;8.84;56.95;99975.81;5102921;28;10323;-76
2022/12/05 00:19:48;;;;;;;;;8.00;8.00;;;;;8.78;57.00;99985.28;5070380;28;8858;-76
2022/12/05 00:22:25;;;;;;;;;6.80;6.80;;;;;8.63;57.65;99984.19;5068807;28;8858;-75
2022/12/05 00:24:54;;;;;;;;;8.60;6.00;;;;;8.65;57.85;99972.09;5068952;28;8958;-76
2022/12/05 00:27:23;;;;;;;;;7.20;6.60;;;;;8.50;57.97;99973.63;5071002;28;8854;-76
2022/12/05 00:29:51;;;;;;;;;5.00;5.00;;;;;8.68;56.95;99969.56;5070371;28;8982;-79
2022/12/05 00:32:20;;;;;;;;;5.40;5.40;;;;;8.62;56.98;99969.44;5037816;28;9074;-76
2022/12/05 00:34:48;;;;;;;;;8.80;6.20;;;;;8.58;57.89;99978.91;5053729;28;8964;-78
2022/12/05 00:37:17;;;;;;;;;7.00;7.00;;;;;8.70;56.91;99979.13;5069024;28;9623;-77
2022/12/05 00:39:47;;;;;;;;;9.80;7.00;;;;;8.58;57.53;99977.22;5063994;28;8930;-75
2022/12/05 00:42:16;;;;;;;;;4.20;4.20;;;;;8.67;57.46;99980.78;5072085;28;8865;-76
2022/12/05 00:44:44;;;;;;;;;7.00;6.60;;;;;8.62;57.53;99974.63;5086149;28;9031;-76
2022/12/05 00:47:13;;;;;;;;;3.40;3.40;;;;;8.53;57.14;99965.00;5069096;28;8840;-76
2022/12/05 00:49:41;;;;;;;;;6.40;5.00;;;;;8.49;57.38;99974.47;5070724;28;8844;-77
2022/12/05 00:52:10;;;;;;;;;5.60;5.00;;;;;8.50;57.46;99973.63;5074532;28;8856;-78
2022/12/05 00:54:38;;;;;;;;;5.40;4.60;;;;;8.55;57.31;99968.50;5084204;28;8956;-74
2022/12/05 00:57:09;;;;;;;;;6.20;4.60;;;;;8.58;56.93;99963.31;5095130;28;8884;-76
2022/12/05 00:59:37;;;;;;;;;5.40;5.40;;;;;8.61;57.14;99965.97;5089404;28;8842;-80
2022/12/05 01:02:06;;;;;;;;;3.00;3.00;;;;;8.41;57.63;99960.44;5087317;28;8974;-77
2022/12/05 01:04:34;;;;;;;;;9.20;5.40;;;;;8.58;57.27;99951.22;5053461;28;8841;-76
2022/12/05 01:07:03;;;;;;;;;5.00;5.00;;;;;8.65;57.05;99959.09;5070291;28;8883;-78
2022/12/05 01:09:32;;;;;;;;;2.40;2.40;;;;;8.65;56.82;99953.91;5070136;28;8975;-76
2022/12/05 01:12:00;;;;;;;;;4.80;4.80;;;;;8.64;56.31;99931.34;5085663;28;8892;-76
2022/12/05 01:14:30;;;;;;;;;6.00;5.80;;;;;8.47;57.20;99939.81;5086746;28;9679;-77
2022/12/05 01:16:59;;;;;;;;;5.00;5.00;;;;;8.43;56.96;99929.31;5020497;28;8857;-76
2022/12/05 01:19:29;;;;;;;;;4.20;3.00;;;;;8.54;57.34;99935.53;5036354;28;8845;-75
2022/12/05 01:21:59;;;;;;;;;3.80;3.80;;;;;8.62;57.10;99936.53;5069318;28;8961;-78
2022/12/05 01:24:29;;;;;;;;;5.00;5.00;;;;;8.55;57.21;99932.97;5046290;28;8870;-75
2022/12/05 01:26:57;;;;;;;;;5.20;4.20;;;;;8.56;57.15;99942.53;5046148;28;8846;-77
2022/12/05 01:29:26;;;;;;;;;4.60;4.60;;;;;8.58;56.71;99933.03;5028358;28;8888;-79
2022/12/05 01:31:56;;;;;;;;;4.20;4.20;;;;;8.65;56.73;99941.78;5045870;28;9647;-76
2022/12/05 01:34:24;;;;;;;;;5.80;5.80;;;;;8.57;57.08;99939.06;5046105;28;8938;-76
2022/12/05 01:36:53;;;;;;;;;6.20;5.60;;;;;8.61;56.96;99944.31;5046120;28;8850;-75
2022/12/05 01:39:22;;;;;;;;;2.60;2.60;;;;;8.78;56.42;99938.47;5053303;28;8848;-76
2022/12/05 01:41:51;;;;;;;;;3.80;3.80;;;;;8.96;56.26;99936.97;5066487;28;8840;-77
2022/12/05 01:44:57;;;;;;;;;5.00;4.20;;;;;8.87;56.12;99949.88;5096153;28;8872;-75
2022/12/05 01:47:29;;;;;;;;;6.20;5.40;;;;;8.90;55.86;99940.38;5081815;28;8879;-75
2022/12/05 01:49:58;;;;;;;;;3.80;3.80;;;;;8.82;56.11;99939.38;5066601;28;8889;-79
2022/12/05 01:52:31;;;;;;;;;4.60;4.60;;;;;8.81;56.36;99934.16;5065776;28;8921;-76
2022/12/05 01:55:03;;;;;;;;;2.60;2.60;;;;;8.89;55.96;99936.03;5066232;28;8854;-75
2022/12/05 01:57:33;;;;;;;;;3.00;3.00;;;;;8.82;56.25;99949.78;5083593;28;8862;-78
2022/12/05 02:00:12;;;;;;;;;5.60;5.60;;;;;8.84;56.19;99937.69;5068583;28;8860;-77
2022/12/05 02:02:47;;;;;;;;;7.40;4.60;;;;;8.86;55.98;99940.31;5081701;28;8932;-76
2022/12/05 02:05:20;;;;;;;;;4.60;4.60;;;;;8.83;55.86;99938.56;5070032;28;8859;-75
2022/12/05 02:07:49;;;;;;;;;5.60;5.60;;;;;8.75;56.09;99941.06;5086841;28;9006;-76
2022/12/05 02:10:18;;;;;;;;;2.40;2.40;;;;;8.65;56.34;99931.38;5088233;28;8909;-75
2022/12/05 02:12:49;;;;;;;;;4.60;4.60;;;;;8.64;56.90;99931.34;5086554;28;8868;-76
2022/12/05 02:15:30;;;;;;;;;5.60;5.20;;;;;8.67;56.96;99934.84;5087080;28;8888;-76
2022/12/05 02:18:13;;;;;;;;;4.80;4.80;;;;;8.76;56.53;99934.13;5086001;28;8847;-77
2022/12/05 02:20:55;;;;;;;;;2.00;2.00;;;;;8.82;56.28;99918.59;5088571;28;8924;-75
2022/12/05 02:23:43;;;;;;;;;3.80;3.80;;;;;8.68;56.29;99928.81;5088611;28;8901;-75
2022/12/05 02:26:41;;;;;;;;;3.00;3.00;;;;;8.66;56.95;99922.72;5088760;28;8950;-78
2022/12/05 02:29:50;;;;;;;;;8.60;5.00;;;;;8.56;57.29;99921.75;5079656;28;9648;-78
2022/12/05 02:32:33;;;;;;;;;6.00;6.00;;;;;8.64;57.10;99926.13;5068422;28;8866;-77
2022/12/05 02:35:13;;;;;;;;;3.40;2.80;;;;;8.73;56.29;99927.16;5077888;28;9589;-75
2022/12/05 02:37:52;;;;;;;;;4.20;4.20;;;;;8.66;56.65;99940.03;5095696;28;8863;-73
2022/12/05 02:40:27;;;;;;;;;5.80;5.80;;;;;8.55;56.82;99935.56;5104958;28;8886;-76
2022/12/05 02:43:04;;;;;;;;;3.00;3.00;;;;;8.53;57.52;99921.69;5077357;28;8857;-77
2022/12/05 02:45:37;;;;;;;;;7.00;5.00;;;;;8.45;57.50;99923.31;5103407;28;8858;-76
2022/12/05 02:48:09;;;;;;;;;7.00;5.20;;;;;8.44;58.19;99921.56;5067989;28;8850;-78
2022/12/05 02:50:40;;;;;;;;;5.20;4.40;;;;;8.59;57.76;99928.69;5078505;28;8847;-77
2022/12/05 02:53:12;;;;;;;;;3.20;3.20;;;;;8.71;57.18;99920.19;5087813;28;9023;-76
2022/12/05 02:55:42;;;;;;;;;4.80;4.60;;;;;8.82;56.48;99935.94;5086914;28;8976;-75
2022/12/05 02:58:17;;;;;;;;;5.80;3.40;;;;;8.86;57.06;99927.31;5103219;28;8932;-78
2022/12/05 03:00:49;;;;;;;;;2.60;2.60;;;;;8.91;56.66;99928.25;5051863;28;9593;-76
2022/12/05 03:03:22;;;;;;;;;3.00;3.00;;;;;8.80;57.07;99919.44;5088162;28;8994;-76
2022/12/05 03:05:59;;;;;;;;;3.00;3.00;;;;;8.84;57.05;99914.28;5086915;28;8925;-75
2022/12/05 03:08:32;;;;;;;;;2.00;2.00;;;;;8.81;57.02;99901.25;5087318;28;8856;-77
2022/12/05 03:11:03;;;;;;;;;3.00;3.00;;;;;8.76;57.13;99903.78;5073369;28;9641;-75
2022/12/05 03:13:37;;;;;;;;;3.00;2.20;;;;;8.66;57.43;99917.53;5091085;28;8864;-75
2022/12/05 03:16:13;;;;;;;;;3.00;3.00;;;;;8.61;57.80;99907.94;5091235;28;8831;-75
2022/12/05 03:18:48;;;;;;;;;5.80;4.20;;;;;8.59;57.70;99913.09;5090599;28;8852;-76
2022/12/05 03:21:30;;;;;;;;;3.40;2.40;;;;;8.66;58.84;99914.94;5091638;28;8843;-75
2022/12/05 03:24:04;;;;;;;;;3.00;3.00;;;;;8.78;58.07;99919.41;5090416;28;8987;-78
2022/12/05 03:26:44;;;;;;;;;3.80;3.00;;;;;8.80;57.67;99916.84;5071447;28;8995;-77
2022/12/05 03:29:24;;;;;;;;;5.80;4.60;;;;;8.73;57.79;99916.75;5091244;28;8868;-78
2022/12/05 03:32:03;;;;;;;;;5.20;5.20;;;;;8.80;57.23;99906.44;5056363;28;8847;-76
2022/12/05 03:34:43;;;;;;;;;4.60;4.20;;;;;8.76;57.43;99924.59;5097790;28;8844;-76
2022/12/05 03:37:20;;;;;;;;;6.00;6.00;;;;;8.85;57.11;99925.56;5095547;28;8859;-76
2022/12/05 03:39:58;;;;;;;;;4.20;4.20;;;;;8.78;57.19;99922.88;5057492;28;8856;-75
2022/12/05 03:42:33;;;;;;;;;5.60;5.60;;;;;8.85;57.45;99917.78;5072581;28;8838;-74
2022/12/05 03:45:08;;;;;;;;;4.20;3.00;;;;;8.63;57.52;99908.81;5036512;28;8952;-76
2022/12/05 03:47:47;;;;;;;;;5.80;5.80;;;;;8.74;57.65;99923.69;5089870;28;8866;-75
2022/12/05 03:50:22;;;;;;;;;3.80;3.00;;;;;8.84;57.18;99929.00;5089626;28;8877;-76
2022/12/05 03:52:55;;;;;;;;;3.40;3.40;;;;;8.52;58.20;99929.47;5089790;28;9617;-75
2022/12/05 03:55:49;;;;;;;;;3.00;3.00;;;;;8.75;57.13;99927.16;5091243;28;8937;-75
2022/12/05 03:58:26;;;;;;;;;6.60;5.80;;;;;8.64;57.47;99919.25;5091052;28;8843;-76
2022/12/05 04:00:59;;;;;;;;;5.20;5.20;;;;;8.52;58.60;99914.72;5088613;28;8940;-75
2022/12/05 04:03:38;;;;;;;;;7.60;6.00;;;;;8.48;57.98;99912.94;5119997;27;8842;-74
2022/12/05 04:06:15;;;;;;;;;5.00;3.00;;;;;8.49;57.96;99919.03;5034716;28;8858;-78
2022/12/05 04:08:49;;;;;;;;;8.20;7.20;;;;;8.43;58.93;99901.63;5069478;28;8858;-76
2022/12/05 04:11:23;;;;;;;;;7.40;7.40;;;;;8.33;58.84;99918.75;5052088;28;8843;-74
2022/12/05 04:13:54;;;;;;;;;5.80;5.60;;;;;8.27;58.85;99913.47;5070244;28;8842;-75
2022/12/05 04:19:19;;;;;;;;;4.60;4.20;;;;;8.23;58.91;99918.63;5090494;28;8839;-76
2022/12/05 04:21:52;;;;;;;;;5.00;5.00;;;;;8.13;58.83;99908.09;5091039;28;8969;-77
2022/12/05 04:27:22;;;;;;;;;9.20;4.60;;;;;8.17;59.00;99916.81;5096010;28;8851;-74
2022/12/05 04:30:01;;;;;;;;;5.00;5.00;;;;;8.07;59.20;99923.59;5085501;28;8859;-73
2022/12/05 04:32:37;;;;;;;;;7.00;5.20;;;;;7.97;59.61;99922.53;5090723;28;8944;-77
2022/12/05 04:35:12;;;;;;;;;6.40;6.40;;;;;8.06;60.06;99929.63;5104889;28;8878;-80
2022/12/05 04:37:46;;;;;;;;;5.80;5.80;;;;;8.09;59.56;99921.88;5090277;28;8875;-76
2022/12/05 04:40:22;;;;;;;;;9.60;9.60;;;;;8.01;60.15;99931.25;5054764;28;8867;-76
2022/12/05 04:42:54;;;;;;;;;6.60;5.00;;;;;7.94;59.74;99929.41;5083340;28;8850;-77
2022/12/05 04:45:26;;;;;;;;;6.00;5.80;;;;;7.98;59.60;99942.47;5069873;28;8874;-75
2022/12/05 04:47:59;;;;;;;;;5.00;5.00;;;;;8.03;59.48;99931.28;5068176;28;8851;-74
2022/12/05 04:50:33;;;;;;;;;5.00;2.80;;;;;7.96;60.16;99944.19;5082705;28;8852;-75
2022/12/05 04:53:03;;;;;;;;;8.80;6.60;;;;;7.93;60.55;99951.03;5088205;28;8871;-78
2022/12/05 04:55:37;;;;;;;;;5.00;4.20;;;;;7.91;60.61;99943.22;5088050;28;8859;-78
2022/12/05 04:58:09;;;;;;;;;5.00;2.80;;;;;7.82;60.55;99953.44;5086168;28;8870;-79
2022/12/05 05:00:46;;;;;;;;;6.80;6.00;;;;;7.87;59.95;99958.75;5050935;28;8846;-78
2022/12/05 05:03:20;;;;;;;;;5.60;5.60;;;;;7.82;60.63;99943.06;5068664;28;8881;-78
2022/12/05 05:05:53;;;;;;;;;11.40;11.40;;;;;7.82;60.69;99953.44;5044035;28;8866;-77
2022/12/05 05:08:24;;;;;;;;;5.80;5.80;;;;;7.89;60.38;99944.94;5049651;28;8835;-76
2022/12/05 05:11:07;;;;;;;;;3.40;3.00;;;;;7.97;59.97;99945.06;5049585;28;8890;-75
2022/12/05 05:13:35;;;;;;;;;3.40;3.40;;;;;7.89;59.74;99941.47;5066695;28;8866;-76
2022/12/05 05:16:04;;;;;;;;;6.20;5.80;;;;;7.83;60.15;99946.56;5066288;28;8867;-76
2022/12/05 05:18:33;;;;;;;;;2.80;2.80;;;;;7.95;59.94;99950.22;5067393;28;9660;-75
2022/12/05 05:21:02;;;;;;;;;11.40;10.60;;;;;7.87;60.17;99936.25;5072477;28;8853;-77
2022/12/05 05:23:32;;;;;;;;;6.20;5.60;;;;;7.76;60.71;99946.44;5073030;28;8854;-76
2022/12/05 05:26:01;;;;;;;;;6.60;5.60;;;;;7.78;60.08;99936.06;5049790;28;8846;-77
2022/12/05 05:28:29;;;;;;;;;5.40;5.20;;;;;7.87;60.00;99941.44;5049368;28;8866;-74
2022/12/05 05:31:02;;;;;;;;;5.00;5.00;;;;;7.93;59.93;99927.69;5016692;28;8866;-75
2022/12/05 05:33:30;;;;;;;;;6.00;5.20;;;;;7.84;59.78;99930.97;5081581;28;8843;-77
2022/12/05 05:36:02;;;;;;;;;11.60;8.00;;;;;7.87;59.64;99940.56;5068341;28;8846;-75
2022/12/05 05:38:35;;;;;;;;;6.60;6.40;;;;;7.93;59.78;99954.50;5094041;28;8835;-76
2022/12/05 05:41:05;;;;;;;;;3.00;3.00;;;;;7.92;59.48;99946.69;5107633;28;8866;-74
2022/12/05 05:43:33;;;;;;;;;5.00;5.00;;;;;8.00;59.26;99943.38;5088732;28;8868;-77
2022/12/05 05:46:04;;;;;;;;;5.00;5.00;;;;;7.92;59.77;99957.97;5053781;28;8855;-78
2022/12/05 05:48:33;;;;;;;;;8.00;5.80;;;;;8.01;59.35;99946.84;5087585;28;8892;-74
2022/12/05 05:51:02;;;;;;;;;6.00;5.00;;;;;8.05;59.44;99946.03;5065029;28;8860;-75
2022/12/05 05:53:32;;;;;;;;;9.40;5.80;;;;;8.17;58.82;99943.66;5064737;28;8833;-76
2022/12/05 05:56:02;;;;;;;;;3.80;3.80;;;;;8.18;58.79;99944.50;5046523;28;8934;-77
2022/12/05 05:58:31;;;;;;;;;4.80;2.40;;;;;8.08;59.58;99946.09;5012358;28;9016;-76
2022/12/05 06:01:03;;;;;;;;;5.60;5.60;;;;;8.17;58.91;99941.06;5028384;28;8943;-75
2022/12/05 06:03:32;;;;;;;;;5.60;2.60;;;;;8.16;59.35;99949.69;4997576;28;8842;-76
2022/12/05 06:06:04;;;;;;;;;5.20;3.80;;;;;8.13;59.63;99947.06;5044462;28;8962;-77
2022/12/05 06:08:36;;;;;;;;;3.40;3.40;;;;;8.07;59.37;99943.47;5045180;28;8980;-77
2022/12/05 06:11:06;;;;;;;;;1.00;1.00;;;;;8.16;59.51;99967.88;5044995;28;8880;-76
2022/12/05 06:13:34;;;;;;;;;2.00;1.60;;;;;8.14;59.48;99973.91;5037059;28;8866;-76
2022/12/05 06:16:05;;;;;;;;;5.20;5.20;;;;;8.17;59.75;99961.84;5068370;28;8850;-76
2022/12/05 06:18:35;;;;;;;;;5.00;5.00;;;;;8.04;59.19;99966.81;5034356;28;8871;-76
2022/12/05 06:21:07;;;;;;;;;9.00;6.00;;;;;8.16;59.20;99965.25;5049060;28;8849;-76
2022/12/05 06:23:45;;;;;;;;;6.40;5.00;;;;;8.17;58.98;99967.03;5082612;28;9036;-75
2022/12/05 06:26:16;;;;;;;;;9.00;5.00;;;;;8.04;59.83;99956.44;5068032;28;8858;-75
2022/12/05 06:28:45;;;;;;;;;6.60;6.60;;;;;8.17;59.13;99964.44;5048291;28;8968;-76
2022/12/05 06:31:16;;;;;;;;;8.20;8.20;;;;;8.12;59.60;99954.81;5015133;28;8898;-76
2022/12/05 06:33:45;;;;;;;;;9.00;7.00;;;;;8.19;59.47;99959.25;5099754;28;8996;-77
2022/12/05 06:36:16;;;;;;;;;6.00;6.00;;;;;8.16;59.20;99964.41;5064190;28;8864;-76
2022/12/05 06:38:45;;;;;;;;;5.40;5.20;;;;;8.15;59.51;99960.06;5049702;28;9002;-77
2022/12/05 06:41:16;;;;;;;;;6.00;6.00;;;;;8.22;59.79;99961.03;5050945;28;8837;-78
2022/12/05 06:43:44;;;;;;;;;10.00;6.00;;;;;8.29;59.08;99955.06;5049684;28;8846;-80
2022/12/05 06:46:15;;;;;;;;;7.00;7.00;;;;;8.34;59.46;99956.91;5066703;28;8862;-75
2022/12/05 06:48:43;;;;;;;;;9.20;7.80;;;;;8.46;58.59;99966.63;5046945;28;8863;-76
2022/12/05 06:51:14;;;;;;;;;8.20;6.80;;;;;8.53;58.44;99958.06;5046628;28;8851;-74
2022/12/05 06:53:43;;;;;;;;;8.80;5.20;;;;;8.53;58.49;99975.41;5060935;28;8961;-73
2022/12/05 06:56:15;;;;;;;;;6.60;5.00;;;;;8.74;58.25;99970.50;5039456;28;8861;-74
2022/12/05 06:58:45;;;;;;;;;7.00;6.20;;;;;8.75;57.95;99968.75;5060711;28;8918;-76
2022/12/05 07:04:02;;;;;;;;;6.60;5.80;;;;;8.85;57.82;99980.19;5080231;28;8855;-76
2022/12/05 07:06:30;;;;;;;;;5.80;4.60;;;;;8.80;58.21;99979.25;5066599;28;9620;-74
2022/12/05 07:08:59;;;;;;;;;6.80;6.60;;;;;8.82;58.03;100003.53;5084136;28;8879;-76
2022/12/05 07:11:29;;;;;;;;;9.60;6.80;;;;;9.21;56.81;99997.13;5067737;28;8921;-78
2022/12/05 07:13:58;;;;;;;;;8.00;5.40;;;;;9.16;56.60;99997.91;5031551;28;8872;-73
2022/12/05 07:16:27;;;;;;;;;5.60;5.60;;;;;9.15;56.70;99997.91;5047204;28;8848;-79
2022/12/05 07:18:56;;;;;;;;;7.00;6.60;;;;;9.20;56.96;99993.63;5030632;28;9015;-78
2022/12/05 07:21:25;;;;;;;;;6.20;5.80;;;;;9.51;55.91;99999.22;5028584;28;8866;-77
2022/12/05 07:23:54;;;;;;;;;5.60;5.60;;;;;9.29;56.46;100000.69;5058133;28;8899;-73
2022/12/05 07:26:24;;;;;;;;;5.00;4.80;;;;;9.29;56.58;100003.28;5063408;28;8872;-73
2022/12/05 07:28:56;;;;;;;;;9.60;6.80;;;;;9.51;56.48;100000.06;5063173;28;8852;-72
2022/12/05 07:31:25;;;;;;;;;5.00;5.00;;;;;9.55;56.05;100017.47;5061171;28;8860;-75
2022/12/05 07:33:53;;;;;;;;;6.80;6.40;;;;;9.47;56.17;100003.50;5029276;28;8955;-73
2022/12/05 07:36:22;;;;;;;;;6.00;6.00;;;;;9.61;55.90;100007.97;5062278;28;8872;-72
2022/12/05 07:38:55;;;;;;;;;7.00;6.00;;;;;9.69;55.82;99990.69;5062394;28;9602;-73
2022/12/05 07:41:26;;;;;;;;;10.20;7.00;;;;;9.79;55.74;99999.47;5045652;28;8832;-75
2022/12/05 07:43:57;;;;;;;;;7.00;6.40;;;;;9.73;55.77;99990.75;5046405;28;8878;-74
2022/12/05 07:46:28;;;;;;;;;5.80;5.80;;;;;9.83;55.66;100003.84;5027605;28;8860;-74
2022/12/05 07:48:57;;;;;;;;;7.00;6.00;;;;;9.84;55.79;99997.78;5063582;28;8860;-73
2022/12/05 07:51:26;;;;;;;;;8.00;7.00;;;;;10.10;54.72;100009.31;5072948;28;8866;-73
2022/12/05 07:53:54;;;;;;;;;5.60;5.60;;;;;10.09;54.99;100007.59;5071910;28;8883;-73
2022/12/05 07:56:23;;;;;;;;;8.40;7.00;;;;;10.21;54.45;100005.94;5088515;28;8859;-73
2022/12/05 07:58:52;;;;;;;;;6.60;6.00;;;;;10.17;54.97;100022.41;5089693;28;8875;-73
2022/12/05 08:01:24;;;;;;;;;8.00;8.00;;;;;10.32;54.59;100023.47;5090121;28;8868;-72
2022/12/05 08:03:54;;;;;;;;;5.20;5.20;;;;;10.43;54.27;100013.09;5092238;28;8856;-71
2022/12/05 08:06:25;;;;;;;;;8.60;8.60;;;;;10.39;54.18;100008.72;5123375;27;8836;-72
2022/12/05 08:08:54;;;;;;;;;6.00;6.00;;;;;10.57;53.30;100009.72;5072230;28;8982;-72
2022/12/05 08:11:25;;;;;;;;;8.80;7.80;;;;;10.58;53.71;100011.47;5090292;28;8832;-73
2022/12/05 08:13:55;;;;;;;;;7.80;7.80;;;;;10.69;52.96;100021.09;5089737;28;8871;-73
2022/12/05 08:16:27;;;;;;;;;7.80;4.80;;;;;10.84;53.03;100016.88;5089629;28;9004;-71
2022/12/05 08:18:57;;;;;;;;;6.80;6.40;;;;;10.88;52.58;100019.47;5089922;28;8844;-73
2022/12/05 08:21:26;;;;;;;;;4.00;4.00;;;;;10.80;53.63;100020.31;5089986;28;8856;-71
2022/12/05 08:23:55;;;;;;;;;6.00;6.00;;;;;10.91;52.74;100013.44;5088416;28;8975;-73
2022/12/05 08:26:26;;;;;;;;;7.00;5.60;;;;;10.70;53.18;100012.44;5089601;28;8864;-73
2022/12/05 08:28:58;;;;;;;;;8.00;6.00;;;;;10.95;53.23;100016.94;5089462;28;8848;-75
2022/12/05 08:31:30;;;;;;;;;6.80;6.80;;;;;11.06;52.29;100016.13;5089732;28;8855;-72
2022/12/05 08:34:00;;;;;;;;;7.00;6.20;;;;;11.01;52.63;100006.53;5089710;28;8990;-73
2022/12/05 08:36:30;;;;;;;;;7.00;7.00;;;;;11.07;52.46;100009.16;5046588;28;8869;-72
2022/12/05 08:39:00;;;;;;;;;7.00;7.00;;;;;11.12;52.63;100010.06;5046504;28;8848;-72
2022/12/05 08:41:29;;;;;;;;;7.40;4.00;;;;;11.12;51.79;100002.22;5046202;28;8955;-72
2022/12/05 08:44:00;;;;;;;;;4.80;4.80;;;;;11.09;52.54;100007.41;5046592;28;8862;-74
2022/12/05 08:46:30;;;;;;;;;7.20;6.00;;;;;11.11;53.02;100018.72;5046252;28;8870;-72
2022/12/05 08:48:59;;;;;;;;;7.80;7.60;;;;;11.23;51.88;100025.78;5046515;28;9039;-73
2022/12/05 08:51:28;;;;;;;;;7.40;6.40;;;;;11.20;52.41;100013.56;5044036;28;9812;-74
2022/12/05 08:53:56;;;;;;;;;7.40;7.40;;;;;11.26;52.11;100018.81;5046441;28;8870;-73
2022/12/05 08:56:25;;;;;;;;;6.20;6.20;;;;;11.32;52.21;100011.03;5048086;28;9596;-72
2022/12/05 08:58:56;;;;;;;;;7.80;6.60;;;;;11.41;51.95;100015.38;5050235;28;9670;-77
2022/12/05 09:01:37;;;;;;;;;8.80;8.20;;;;;11.35;51.30;100006.66;5042910;28;8868;-76
2022/12/05 09:04:07;;;;;;;;;10.80;8.80;;;;;11.31;51.97;100011.88;5045862;28;8843;-73
2022/12/05 09:06:38;;;;;;;;;7.00;7.00;;;;;11.23;52.33;100004.91;5039535;28;8852;-73
2022/12/05 09:09:10;;;;;;;;;7.80;7.80;;;;;11.28;51.98;99988.34;5079541;28;8928;-76
2022/12/05 09:11:45;;;;;;;;;8.20;7.20;;;;;11.28;52.24;99980.50;5089146;28;8870;-75
2022/12/05 09:14:14;;;;;;;;;6.00;6.00;;;;;11.19;52.64;99985.72;5083738;28;8862;-74
2022/12/05 09:16:46;;;;;;;;;7.60;6.60;;;;;11.24;52.70;100002.25;5069727;28;8975;-76
2022/12/05 09:19:19;;;;;;;;;8.80;7.80;;;;;11.42;52.54;99984.94;5070796;28;8842;-75
2022/12/05 09:21:48;;;;;;;;;9.60;7.80;;;;;11.36;52.78;99974.44;5100783;28;8863;-73
2022/12/05 09:24:17;;;;;;;;;8.40;8.20;;;;;11.42;52.99;99971.88;5065650;28;8963;-75
2022/12/05 09:26:46;;;;;;;;;8.20;8.20;;;;;11.39;52.25;99979.69;5086943;28;8874;-77
2022/12/05 09:29:15;;;;;;;;;9.40;8.40;;;;;11.55;52.27;99973.66;5086757;28;8886;-76
2022/12/05 09:31:51;;;;;;;;;10.80;9.20;;;;;11.43;52.77;99966.63;5067550;28;8858;-75
2022/12/05 09:34:19;;;;;;;;;9.40;8.00;;;;;11.36;53.18;99964.91;5068201;28;8896;-74
2022/12/05 09:36:51;;;;;;;;;8.80;8.40;;;;;11.35;53.27;99968.38;5068786;28;8888;-74
2022/12/05 09:39:37;;;;;;;;;6.60;6.60;;;;;11.41;53.00;99944.00;5069278;28;8880;-76
2022/12/05 09:42:23;;;;;;;;;7.00;7.00;;;;;11.51;53.33;99969.28;5102851;28;8846;-74
2022/12/05 09:45:14;;;;;;;;;9.80;8.80;;;;;11.67;52.93;99983.25;5068800;28;9641;-75
2022/12/05 09:47:52;;;;;;;;;8.00;8.00;;;;;11.77;52.86;99976.31;5067004;28;8883;-74
2022/12/05 09:50:23;;;;;;;;;9.60;8.60;;;;;11.80;52.64;99977.19;5045939;28;8979;-75
2022/12/05 09:53:02;;;;;;;;;12.20;10.60;;;;;12.11;52.17;99961.53;5098514;28;8857;-74
2022/12/05 09:55:40;;;;;;;;;11.20;11.00;;;;;12.25;51.83;99964.19;5044888;28;8852;-73
2022/12/05 09:58:21;;;;;;;;;13.20;12.00;;;;;12.40;51.68;99968.50;5085364;28;8857;-75
2022/12/05 10:00:58;;;;;;;;;12.60;10.40;;;;;12.63;50.31;99955.41;5085041;28;8964;-73
2022/12/05 10:03:37;;;;;;;;;10.00;9.00;;;;;12.77;50.33;99971.91;5067239;28;8854;-74
2022/12/05 10:06:15;;;;;;;;;8.60;8.00;;;;;12.80;50.25;99965.81;5034759;28;8869;-75
2022/12/05 10:09:01;;;;;;;;;14.00;13.20;;;;;12.79;50.20;99961.44;5087208;28;8871;-74
2022/12/05 10:11:37;;;;;;;;;11.20;11.00;;;;;12.93;49.92;99936.13;5086248;28;8855;-75
2022/12/05 10:14:14;;;;;;;;;10.20;9.60;;;;;12.98;50.36;99951.78;5078307;28;8953;-74
2022/12/05 10:16:49;;;;;;;;;10.20;10.20;;;;;13.16;49.46;99940.38;5079966;28;8996;-74
2022/12/05 10:19:25;;;;;;;;;10.60;10.60;;;;;13.27;49.66;99931.59;5085718;28;8867;-74
2022/12/05 10:21:59;;;;;;;;;12.60;11.40;;;;;13.23;49.48;99934.22;5086219;28;8863;-74
2022/12/05 10:24:33;;;;;;;;;11.20;10.60;;;;;13.21;49.43;99951.69;5086065;28;8948;-77
2022/12/05 10:27:06;;;;;;;;;9.60;7.60;;;;;13.43;48.96;99936.75;5080020;28;8846;-74
2022/12/05 10:29:40;;;;;;;;;14.60;13.00;;;;;13.38;49.00;99944.66;5079906;28;8851;-75
2022/12/05 10:32:14;;;;;;;;;14.20;14.20;;;;;13.44;49.24;99938.53;5095990;28;8869;-74
2022/12/05 10:34:45;;;;;;;;;14.80;11.60;;;;;13.45;48.74;99927.16;5099545;28;8854;-75
2022/12/05 10:37:16;;;;;;;;;17.00;14.80;;;;;13.51;49.18;99934.97;5105857;28;8993;-73
2022/12/05 10:39:46;;;;;;;;;15.20;12.20;;;;;13.69;48.27;99925.25;5105003;28;8974;-76
2022/12/05 10:42:17;;;;;;;;;15.20;15.20;;;;;13.68;48.33;99923.50;5111420;28;8904;-75
2022/12/05 10:44:47;;;;;;;;;18.60;15.40;;;;;13.71;48.40;99918.25;5080557;28;8850;-74
2022/12/05 10:47:16;;;;;;;;;13.00;13.00;;;;;13.79;48.41;99933.03;5094933;28;8874;-76
2022/12/05 10:49:47;;;;;;;;;11.80;11.80;;;;;13.94;47.79;99924.16;5105233;28;8861;-76
2022/12/05 10:52:15;;;;;;;;;14.20;14.20;;;;;13.95;47.78;99925.91;5104945;28;8991;-74
2022/12/05 10:54:49;;;;;;;;;10.80;9.60;;;;;14.04;47.44;99933.72;5070790;28;9076;-75
2022/12/05 10:57:23;;;;;;;;;5.60;5.60;;;;;14.21;47.33;99932.69;5083743;28;9002;-75
2022/12/05 10:59:53;;;;;;;;;10.60;10.60;;;;;14.34;46.78;99929.06;5084095;28;8923;-76
2022/12/05 11:02:26;;;;;;;;;18.60;11.80;;;;;14.49;46.64;99935.03;5094439;28;8959;-73
2022/12/05 11:04:57;;;;;;;;;12.20;11.00;;;;;14.46;46.28;99935.97;5063502;28;8862;-74
2022/12/05 11:07:31;;;;;;;;;6.20;3.20;;;;;14.47;46.58;99949.94;5014364;28;8862;-74
2022/12/05 11:10:02;;;;;;;;;14.80;12.00;;;;;14.35;46.84;99943.94;5065460;28;8924;-74
2022/12/05 11:12:38;;;;;;;;;12.60;12.60;;;;;14.42;46.52;99932.50;5065787;28;8890;-75
2022/12/05 11:15:23;;;;;;;;;15.60;12.80;;;;;14.34;46.57;99938.69;5064830;28;8861;-75
2022/12/05 11:17:52;;;;;;;;;12.00;11.20;;;;;14.36;46.82;99932.53;5045255;28;8866;-76
2022/12/05 11:20:39;;;;;;;;;15.00;12.00;;;;;14.32;46.57;99922.94;5066990;28;8966;-75
2022/12/05 11:23:26;;;;;;;;;17.00;13.60;;;;;13.97;47.62;99925.88;5064081;28;8969;-73
2022/12/05 11:25:57;;;;;;;;;13.00;12.40;;;;;14.09;47.55;99922.31;5066075;28;8866;-74
2022/12/05 11:28:35;;;;;;;;;11.40;11.20;;;;;14.26;47.02;99928.25;5062486;28;8882;-75
2022/12/05 11:31:07;;;;;;;;;13.60;12.60;;;;;14.47;47.01;99927.19;5034112;28;9611;-75
2022/12/05 11:33:36;;;;;;;;;16.60;14.20;;;;;14.42;46.93;99916.75;5083242;28;8880;-75
2022/12/05 11:36:18;;;;;;;;;13.00;11.40;;;;;14.33;46.87;99911.59;5075997;28;8866;-75
2022/12/05 11:38:47;;;;;;;;;15.80;14.00;;;;;14.30;47.01;99913.38;5081017;28;8889;-74
2022/12/05 11:41:32;;;;;;;;;14.00;14.00;;;;;14.51;46.59;99917.53;5071895;28;8842;-75
2022/12/05 11:44:50;;;;;;;;;17.40;13.60;;;;;14.58;46.59;99904.34;5034924;28;8998;-75
2022/12/05 11:47:34;;;;;;;;;17.60;16.00;;;;;14.41;47.13;99906.25;5070810;28;8853;-73
2022/12/05 11:50:24;;;;;;;;;16.00;14.80;;;;;14.61;46.59;99893.81;5049375;28;8879;-72
2022/12/05 11:53:12;;;;;;;;;16.00;15.40;;;;;14.50;46.98;99903.53;5082111;28;8962;-72
2022/12/05 11:55:46;;;;;;;;;17.00;14.60;;;;;14.46;47.21;99886.09;5050019;28;8845;-74
2022/12/05 11:58:38;;;;;;;;;16.80;15.60;;;;;14.47;47.17;99885.19;5048447;28;8861;-74
2022/12/05 12:01:17;;;;;;;;;13.20;12.00;;;;;14.53;47.46;99879.00;5048938;28;8876;-74
2022/12/05 12:04:16;;;;;;;;;15.40;13.60;;;;;14.48;47.63;99884.31;5050525;28;8943;-76
2022/12/05 12:06:59;;;;;;;;;17.20;15.60;;;;;14.42;47.78;99879.13;5070488;28;8856;-72
2022/12/05 12:09:42;;;;;;;;;17.40;15.60;;;;;14.53;47.63;99871.13;5089694;28;9586;-75
2022/12/05 12:12:23;;;;;;;;;12.00;10.60;;;;;14.35;48.21;99866.97;5089559;28;8859;-74
2022/12/05 12:15:02;;;;;;;;;13.00;13.00;;;;;14.60;47.53;99864.97;5089758;28;8887;-75
2022/12/05 12:17:41;;;;;;;;;14.40;11.20;;;;;14.69;47.52;99863.97;5087729;28;8877;-75
2022/12/05 12:20:25;;;;;;;;;13.20;11.60;;;;;14.81;47.28;99855.97;5067811;28;8936;-74